Time;durP1;ratioP1;P1;durP2;ratioP2;P2;SDS_P1;SDS_P2;PMS_P1;PMS_P2;Temp;Humidity;BMP_temperature;BMP_pressure;BME280_temperature;BME280_humidity;BME280_pressure;Samples;Min_cycle;Max_cycle;Signal;HPM_P1;HPM_P2
2021/07/28 04:40:37;;;;;;;16.52;8.90;;;;;;;18.07;72.38;99629.31;5006142;28;106054;-67
2021/07/28 04:43:03;;;;;;;13.77;9.13;;;;;;;18.18;72.74;99624.16;5006181;28;105792;-67
2021/07/28 04:45:28;;;;;;;13.50;9.23;;;;;;;18.35;72.93;99629.66;5007778;28;106390;-67
2021/07/28 04:47:53;;;;;;;12.52;8.82;;;;;;;18.56;72.88;99630.94;5004507;28;107703;-67
2021/07/28 04:50:19;;;;;;;13.65;8.77;;;;;;;18.74;72.87;99619.16;5005029;28;107195;-67
2021/07/28 04:52:44;;;;;;;14.05;8.85;;;;;;;18.91;72.72;99620.09;5005871;28;106664;-67
2021/07/28 04:55:10;;;;;;;16.38;9.63;;;;;;;19.04;72.43;99628.97;5005743;28;106240;-68
2021/07/28 04:57:35;;;;;;;14.98;9.95;;;;;;;19.14;72.08;99622.97;5005208;28;106614;-68
2021/07/28 05:00:00;;;;;;;13.45;8.55;;;;;;;19.23;72.07;99618.81;5004082;28;111405;-68
2021/07/28 05:02:26;;;;;;;13.45;8.93;;;;;;;19.32;71.93;99621.97;5005330;28;106456;-68
2021/07/28 05:04:52;;;;;;;15.70;9.30;;;;;;;19.43;71.94;99618.38;5005252;28;106254;-68
2021/07/28 05:07:18;;;;;;;13.98;8.77;;;;;;;19.53;71.97;99613.16;5004924;28;107462;-67
2021/07/28 05:09:43;;;;;;;13.85;8.90;;;;;;;19.68;71.87;99611.78;5004167;28;105997;-68
2021/07/28 05:12:09;;;;;;;13.57;9.05;;;;;;;19.87;71.83;99615.91;5005933;28;106087;-68
2021/07/28 05:14:34;;;;;;;20.55;8.60;;;;;;;20.04;71.48;99615.06;5005129;28;106271;-70
2021/07/28 05:16:59;;;;;;;15.52;9.65;;;;;;;20.21;71.35;99615.88;4991810;28;106095;-67
2021/07/28 05:19:25;;;;;;;11.63;8.68;;;;;;;20.33;70.91;99613.06;4984915;28;105708;-66
2021/07/28 05:21:50;;;;;;;15.32;8.77;;;;;;;20.38;70.40;99615.03;4985907;28;106060;-67
2021/07/28 05:24:15;;;;;;;14.05;8.93;;;;;;;20.41;70.15;99618.06;4984596;28;105659;-67
2021/07/28 05:26:41;;;;;;;13.43;8.55;;;;;;;20.50;70.21;99613.03;4984762;28;105781;-67
2021/07/28 05:29:06;;;;;;;11.63;8.88;;;;;;;20.68;70.18;99616.50;4983936;28;105778;-66
2021/07/28 05:31:32;;;;;;;18.42;9.02;;;;;;;20.89;70.06;99618.44;4984754;28;105657;-66
2021/07/28 05:33:57;;;;;;;14.23;8.30;;;;;;;21.08;69.54;99616.22;4984734;28;105850;-66
2021/07/28 05:36:22;;;;;;;16.77;8.77;;;;;;;21.26;69.42;99606.91;4984457;28;106075;-66
2021/07/28 05:38:48;;;;;;;16.45;8.93;;;;;;;21.44;69.15;99615.78;4983469;28;106492;-67
2021/07/28 05:41:13;;;;;;;12.05;8.18;;;;;;;21.54;68.41;99621.31;4984615;28;106023;-68
2021/07/28 05:43:38;;;;;;;15.55;8.77;;;;;;;21.62;68.06;99620.84;4984584;28;106202;-67
2021/07/28 05:46:04;;;;;;;17.45;9.40;;;;;;;21.66;67.48;99625.75;4984131;28;106966;-68
2021/07/28 05:48:31;;;;;;;17.80;8.77;;;;;;;21.64;67.50;99624.13;4983902;28;106752;-68
2021/07/28 05:50:58;;;;;;;16.23;9.23;;;;;;;21.69;67.52;99623.34;4977530;28;106458;-67
2021/07/28 05:53:23;;;;;;;17.27;9.52;;;;;;;21.67;66.99;99622.78;4970846;28;106192;-67
2021/07/28 05:55:49;;;;;;;16.25;8.80;;;;;;;21.72;67.23;99622.84;4970571;28;105973;-68
2021/07/28 05:58:14;;;;;;;15.85;9.18;;;;;;;21.81;67.09;99620.47;4970378;28;106035;-67
2021/07/28 06:00:39;;;;;;;13.63;9.10;;;;;;;21.79;66.66;99619.91;4970850;28;106042;-67
2021/07/28 06:03:05;;;;;;;17.73;10.30;;;;;;;21.77;66.53;99620.19;4970736;28;106163;-67
2021/07/28 06:05:30;;;;;;;13.85;8.60;;;;;;;21.87;66.94;99618.59;4969639;28;113246;-66
2021/07/28 06:07:55;;;;;;;17.25;12.10;;;;;;;21.98;66.64;99621.13;4970541;28;106176;-66
2021/07/28 06:10:21;;;;;;;12.63;8.68;;;;;;;22.09;66.62;99618.47;4970454;28;106007;-66
2021/07/28 06:12:46;;;;;;;15.98;9.40;;;;;;;22.18;65.93;99625.06;4969697;28;106085;-67
2021/07/28 06:15:12;;;;;;;21.80;10.38;;;;;;;22.13;65.40;99614.22;4969951;28;106085;-67
2021/07/28 06:17:37;;;;;;;14.52;9.02;;;;;;;22.24;65.84;99615.91;4969442;28;105999;-64
2021/07/28 06:20:04;;;;;;;17.23;9.52;;;;;;;22.41;66.07;99617.66;4970689;28;106151;-68
2021/07/28 06:22:29;;;;;;;15.77;8.63;;;;;;;22.62;65.94;99619.41;4970376;28;106229;-68
2021/07/28 06:24:54;;;;;;;17.45;8.00;;;;;;;22.75;65.16;99625.44;4970386;28;106484;-68
2021/07/28 06:27:20;;;;;;;14.48;8.27;;;;;;;22.73;64.32;99624.84;4968232;28;109609;-68
2021/07/28 06:29:46;;;;;;;13.75;9.88;;;;;;;22.68;63.86;99624.81;4971338;28;105866;-68
2021/07/28 06:32:11;;;;;;;13.30;8.32;;;;;;;22.60;63.71;99629.69;4970972;28;106169;-68
2021/07/28 06:34:36;;;;;;;13.20;8.20;;;;;;;22.65;63.90;99626.19;4970411;28;110044;-68
2021/07/28 06:37:02;;;;;;;17.10;9.35;;;;;;;22.71;63.82;99629.75;4970548;28;105980;-68
2021/07/28 06:39:27;;;;;;;12.63;8.55;;;;;;;22.63;63.92;99625.63;4970477;28;106486;-68
2021/07/28 06:41:53;;;;;;;19.83;8.77;;;;;;;22.61;64.10;99625.91;4970817;28;106002;-68
2021/07/28 06:44:18;;;;;;;16.77;8.27;;;;;;;22.59;64.32;99625.34;4970383;28;105919;-68
2021/07/28 06:46:43;;;;;;;14.52;8.10;;;;;;;22.64;64.26;99625.38;4969954;28;106080;-67
2021/07/28 06:49:09;;;;;;;18.30;9.27;;;;;;;22.83;64.21;99624.91;4970117;28;106300;-68
2021/07/28 06:51:34;;;;;;;16.58;7.60;;;;;;;23.04;64.26;99628.50;4969932;28;106250;-68
2021/07/28 06:54:00;;;;;;;12.57;8.80;;;;;;;23.37;64.05;99620.19;4968628;28;106128;-68
2021/07/28 06:56:25;;;;;;;16.05;7.80;;;;;;;23.84;64.45;99630.03;4970246;28;105811;-68
2021/07/28 06:58:51;;;;;;;14.02;8.57;;;;;;;24.37;63.67;99620.75;4970764;28;105755;-69
2021/07/28 07:01:16;;;;;;;18.42;8.50;;;;;;;25.00;62.52;99622.97;4969741;28;106135;-68
2021/07/28 07:03:41;;;;;;;12.65;7.10;;;;;;;25.47;61.27;99620.84;4968862;28;105770;-68
2021/07/28 07:06:07;;;;;;;13.18;7.30;;;;;;;25.88;60.17;99615.06;4969758;28;106081;-69
2021/07/28 07:08:32;;;;;;;9.43;5.90;;;;;;;26.33;58.84;99623.13;4970655;28;106100;-70
2021/07/28 07:10:58;;;;;;;10.65;5.47;;;;;;;26.59;58.00;99612.72;4969962;28;106125;-69
2021/07/28 07:13:24;;;;;;;10.25;6.20;;;;;;;26.85;56.75;99617.91;4969546;28;106047;-69
2021/07/28 07:15:49;;;;;;;8.45;5.43;;;;;;;26.78;55.60;99614.72;4969428;28;106857;-68
2021/07/28 07:18:15;;;;;;;11.35;6.00;;;;;;;26.71;55.37;99608.78;4970045;28;105947;-68
2021/07/28 07:20:41;;;;;;;12.20;6.20;;;;;;;26.77;55.38;99610.38;4969881;28;107288;-69
2021/07/28 07:23:06;;;;;;;9.93;6.18;;;;;;;26.89;54.79;99616.22;4969489;28;106043;-69
2021/07/28 07:25:31;;;;;;;13.88;6.68;;;;;;;26.92;54.01;99610.16;4969451;28;105996;-68
2021/07/28 07:27:57;;;;;;;12.13;6.38;;;;;;;27.03;54.06;99606.16;4970598;28;106020;-69
2021/07/28 07:30:22;;;;;;;13.80;6.03;;;;;;;27.42;54.24;99601.56;4970048;28;106191;-68
2021/07/28 07:35:32;;;;;;;12.40;5.78;;;;;;;28.04;52.55;99608.78;4969679;28;106134;-68
2021/07/28 07:37:57;;;;;;;18.23;8.43;;;;;;;28.27;52.37;99612.47;4970015;28;105894;-68
2021/07/28 07:40:22;;;;;;;16.27;9.70;;;;;;;28.47;51.60;99614.00;4967269;28;106187;-68
2021/07/28 07:42:48;;;;;;;13.85;7.53;;;;;;;28.63;51.05;99605.47;4969317;28;106438;-72
2021/07/28 07:45:13;;;;;;;37.97;7.82;;;;;;;28.77;50.40;99614.50;4969150;28;105956;-65
2021/07/28 07:47:38;;;;;;;8.40;6.18;;;;;;;28.95;50.04;99607.28;4969531;28;105972;-68
2021/07/28 07:50:04;;;;;;;14.32;7.22;;;;;;;28.98;49.65;99605.84;4968829;28;106277;-67
2021/07/28 07:52:29;;;;;;;10.35;6.70;;;;;;;29.07;49.19;99600.44;4968833;28;106761;-68
2021/07/28 07:54:55;;;;;;;13.38;7.45;;;;;;;29.12;48.82;99600.34;4969060;28;107572;-67
2021/07/28 07:57:20;;;;;;;14.00;7.03;;;;;;;29.23;48.41;99603.66;4969720;28;105995;-67
2021/07/28 07:59:45;;;;;;;11.32;5.80;;;;;;;29.06;48.49;99598.81;4968940;28;106214;-66
2021/07/28 08:02:10;;;;;;;11.43;6.68;;;;;;;29.16;48.78;99601.34;4968622;28;105988;-67
2021/07/28 08:04:36;;;;;;;9.77;5.93;;;;;;;29.32;48.58;99599.06;4969264;28;106017;-67
2021/07/28 08:07:01;;;;;;;14.77;5.82;;;;;;;29.52;48.70;99603.28;4969926;28;106075;-67
2021/07/28 08:09:27;;;;;;;10.63;5.90;;;;;;;29.91;48.01;99601.78;4969356;28;105901;-67
2021/07/28 08:11:54;;;;;;;12.15;6.05;;;;;;;30.32;47.54;99603.44;4968698;28;113099;-67
2021/07/28 08:14:19;;;;;;;9.43;5.20;;;;;;;30.66;46.25;99601.97;4968577;28;105967;-67
2021/07/28 08:16:44;;;;;;;12.07;5.70;;;;;;;30.82;45.81;99598.75;4967624;28;106213;-64
2021/07/28 08:19:10;;;;;;;12.75;5.50;;;;;;;30.96;45.09;99593.94;4968882;28;106251;-65
2021/07/28 08:21:35;;;;;;;10.85;5.45;;;;;;;30.98;44.71;99599.91;4967951;28;106060;-66
2021/07/28 08:24:00;;;;;;;9.88;5.22;;;;;;;31.04;44.75;99593.16;4968059;28;106024;-65
2021/07/28 08:26:26;;;;;;;11.20;5.68;;;;;;;31.23;44.49;99592.03;4969699;28;106060;-64
2021/07/28 08:28:52;;;;;;;11.27;6.45;;;;;;;31.34;43.71;99593.34;4969014;28;106192;-65
2021/07/28 08:31:17;;;;;;;11.43;5.32;;;;;;;31.44;43.44;99596.88;4968547;28;106212;-65
2021/07/28 08:33:43;;;;;;;10.85;5.10;;;;;;;31.50;43.12;99606.59;4968814;28;106175;-66
2021/07/28 08:36:08;;;;;;;11.45;5.03;;;;;;;31.55;42.86;99603.66;4969528;28;105882;-66
2021/07/28 08:38:34;;;;;;;10.23;5.38;;;;;;;31.64;42.99;99611.94;4968318;28;106251;-65
2021/07/28 08:41:00;;;;;;;8.73;4.53;;;;;;;31.78;42.62;99606.25;4968795;28;106415;-66
2021/07/28 08:43:27;;;;;;;11.05;4.72;;;;;;;31.89;42.10;99604.75;4967747;28;105799;-64
2021/07/28 08:45:55;;;;;;;11.32;5.10;;;;;;;32.04;41.85;99601.47;4967719;28;106103;-65
2021/07/28 08:48:22;;;;;;;10.95;4.60;;;;;;;32.21;41.66;99616.38;4968040;28;106222;-66
2021/07/28 08:50:48;;;;;;;11.02;5.00;;;;;;;32.38;40.98;99620.97;4967307;28;106032;-66
2021/07/28 08:53:13;;;;;;;6.25;4.05;;;;;;;32.52;40.35;99615.25;4967289;28;106436;-67
2021/07/28 08:55:39;;;;;;;8.35;4.50;;;;;;;32.41;40.58;99623.09;4968551;28;106112;-63
2021/07/28 08:58:08;;;;;;;10.02;4.38;;;;;;;32.45;40.54;99618.53;4968412;28;106400;-64
2021/07/28 09:00:41;;;;;;;7.00;4.35;;;;;;;32.61;39.56;99618.75;4967174;28;106955;-64
2021/07/28 09:03:07;;;;;;;9.45;4.05;;;;;;;32.61;39.55;99610.50;4967788;28;105857;-64
2021/07/28 09:05:40;;;;;;;6.68;3.95;;;;;;;32.86;39.48;99619.81;4968579;28;106267;-64
2021/07/28 09:08:07;;;;;;;9.32;4.22;;;;;;;33.15;39.15;99617.31;4967949;28;106221;-64
2021/07/28 09:10:32;;;;;;;10.20;4.63;;;;;;;33.31;38.72;99614.78;4967628;28;106420;-65
2021/07/28 09:12:57;;;;;;;9.15;4.60;;;;;;;33.43;38.19;99616.81;4967641;28;106444;-65
2021/07/28 09:15:36;;;;;;;13.07;4.88;;;;;;;33.69;38.05;99613.78;4968545;28;105887;-65
2021/07/28 09:18:27;;;;;;;9.38;4.50;;;;;;;33.97;37.98;99602.97;4967787;28;105986;-65
2021/07/28 09:20:52;;;;;;;12.93;4.40;;;;;;;34.27;36.97;99613.00;4967701;28;105737;-65
2021/07/28 09:23:18;;;;;;;9.52;5.70;;;;;;;34.46;36.08;99618.00;4967559;28;106120;-65
2021/07/28 09:25:43;;;;;;;7.60;5.10;;;;;;;34.41;35.59;99605.22;4969025;28;105773;-65
2021/07/28 09:28:18;;;;;;;8.80;3.95;;;;;;;34.13;35.18;99611.38;4961997;28;105891;-65
2021/07/28 09:30:44;;;;;;;7.15;4.30;;;;;;;33.96;35.44;99606.88;4961433;28;105951;-65
2021/07/28 09:33:10;;;;;;;7.38;4.30;;;;;;;34.01;35.46;99601.13;4969366;28;105884;-66
2021/07/28 09:35:47;;;;;;;9.35;3.97;;;;;;;34.05;35.09;99599.28;4967529;28;106069;-65
2021/07/28 09:38:35;;;;;;;7.38;4.35;;;;;;;34.35;35.17;99601.06;4965684;28;106061;-65
2021/07/28 09:41:21;;;;;;;7.70;4.53;;;;;;;34.64;34.46;99604.75;4970978;28;106846;-66
2021/07/28 09:43:52;;;;;;;7.38;4.50;;;;;;;34.99;33.87;99604.25;4970671;28;106077;-65
2021/07/28 09:46:34;;;;;;;10.85;4.85;;;;;;;35.60;33.58;99603.25;4971144;28;106133;-65
2021/07/28 09:49:06;;;;;;;9.40;4.40;;;;;;;35.83;32.24;99606.28;4970526;28;106372;-65
2021/07/28 09:51:37;;;;;;;7.60;4.13;;;;;;;35.86;32.20;99610.31;4970271;28;107301;-65
2021/07/28 09:54:03;;;;;;;10.43;3.92;;;;;;;35.89;31.79;99610.41;4970139;28;106001;-65
2021/07/28 09:56:37;;;;;;;11.75;4.28;;;;;;;35.95;31.37;99607.38;4971212;28;105917;-66
2021/07/28 09:59:03;;;;;;;6.82;3.50;;;;;;;36.06;31.12;99603.72;4970515;28;106267;-65
2021/07/28 10:01:32;;;;;;;6.47;4.10;;;;;;;36.39;30.66;99599.78;4970166;28;105998;-66
2021/07/28 10:03:59;;;;;;;8.20;4.03;;;;;;;36.83;30.04;99596.06;4970123;28;106108;-66
2021/07/28 10:06:29;;;;;;;9.65;3.88;;;;;;;37.25;29.30;99598.16;4970857;28;105897;-65
2021/07/28 10:08:56;;;;;;;11.63;4.20;;;;;;;37.76;28.58;99591.63;4969708;28;106189;-66
2021/07/28 10:11:23;;;;;;;7.05;4.43;;;;;;;38.19;28.07;99596.31;4969966;28;106798;-66
2021/07/28 10:13:49;;;;;;;7.63;4.50;;;;;;;38.64;27.46;99593.84;4970147;28;106111;-65
2021/07/28 10:16:16;;;;;;;7.47;4.35;;;;;;;38.89;27.23;99595.03;4970317;28;106203;-65
2021/07/28 10:18:48;;;;;;;8.77;4.20;;;;;;;39.06;26.94;99585.31;4970344;28;106204;-65
2021/07/28 10:21:14;;;;;;;8.10;3.90;;;;;;;39.03;26.45;99588.06;4969739;28;106310;-65
2021/07/28 10:23:43;;;;;;;5.47;4.10;;;;;;;38.84;26.76;99586.22;4969747;28;105906;-66
2021/07/28 10:26:12;;;;;;;7.38;4.45;;;;;;;38.86;26.71;99590.22;4970876;28;106172;-65
2021/07/28 10:28:38;;;;;;;9.35;4.15;;;;;;;38.49;26.54;99578.94;4969766;28;106148;-66
2021/07/28 10:31:20;;;;;;;5.63;3.95;;;;;;;38.43;27.31;99572.88;4969621;28;106087;-66
2021/07/28 10:33:47;;;;;;;9.15;3.70;;;;;;;38.41;26.91;99570.50;4969295;28;106205;-66
2021/07/28 10:36:13;;;;;;;6.95;4.07;;;;;;;38.37;26.90;99568.81;4970325;28;106051;-65
2021/07/28 10:38:55;;;;;;;7.93;4.40;;;;;;;39.01;26.35;99565.34;4969453;28;106239;-65
2021/07/28 10:41:39;;;;;;;10.27;4.00;;;;;;;39.67;25.30;99568.53;4969389;28;105828;-65
2021/07/28 10:44:08;;;;;;;11.38;4.18;;;;;;;40.09;24.43;99564.56;4969680;28;106115;-64
2021/07/28 10:46:52;;;;;;;7.18;4.00;;;;;;;40.33;24.13;99562.31;4970448;28;105904;-66
2021/07/28 10:49:35;;;;;;;10.38;3.63;;;;;;;40.71;23.69;99557.38;4969624;28;106004;-66
2021/07/28 10:52:34;;;;;;;8.43;3.90;;;;;;;41.32;22.93;99556.84;4969716;28;105710;-66
2021/07/28 10:54:59;;;;;;;7.55;4.00;;;;;;;41.36;22.49;99560.47;4969450;28;106136;-66
2021/07/28 10:57:38;;;;;;;7.18;3.78;;;;;;;41.15;22.82;99563.97;4970209;28;106020;-66
2021/07/28 11:00:08;;;;;;;6.57;4.18;;;;;;;41.33;22.62;99558.44;4967689;28;106358;-66
2021/07/28 11:02:52;;;;;;;5.55;4.00;;;;;;;41.49;22.92;99565.69;4969494;28;106998;-66
2021/07/28 11:05:29;;;;;;;8.05;4.10;;;;;;;41.49;22.84;99562.88;4969291;28;107093;-66
2021/07/28 11:08:06;;;;;;;5.80;4.00;;;;;;;41.18;23.02;99554.81;4970116;28;105814;-66
2021/07/28 11:10:40;;;;;;;5.10;3.65;;;;;;;40.89;23.17;99548.31;4969611;28;106032;-66
2021/07/28 11:13:10;;;;;;;8.60;4.10;;;;;;;40.81;22.83;99541.09;4969355;28;106254;-66
2021/07/28 11:15:36;;;;;;;6.25;3.70;;;;;;;40.38;23.24;99530.44;4969171;28;106218;-65
2021/07/28 11:18:03;;;;;;;7.57;4.47;;;;;;;40.22;23.74;99539.94;4970448;28;105979;-65
2021/07/28 11:20:36;;;;;;;7.22;3.70;;;;;;;40.54;23.46;99536.56;4969791;28;105746;-71
2021/07/28 11:23:20;;;;;;;8.60;3.58;;;;;;;40.96;23.03;99541.97;4969059;28;105785;-66
2021/07/28 11:25:46;;;;;;;9.20;4.07;;;;;;;41.17;22.70;99535.66;4968791;28;106027;-66
2021/07/28 11:28:11;;;;;;;6.95;3.97;;;;;;;41.42;22.69;99532.94;4969950;28;106153;-66
2021/07/28 11:30:37;;;;;;;6.70;3.65;;;;;;;41.84;22.34;99534.19;4969285;28;106162;-66
2021/07/28 11:33:13;;;;;;;8.38;3.95;;;;;;;42.03;22.36;99523.81;4968781;28;105941;-65
2021/07/28 11:35:44;;;;;;;5.03;3.90;;;;;;;41.78;22.52;99532.97;4968501;28;105860;-68
2021/07/28 11:38:18;;;;;;;11.05;4.15;;;;;;;41.84;22.12;99527.81;4969543;28;105831;-68
2021/07/28 11:41:10;;;;;;;7.15;4.45;;;;;;;41.82;21.90;99538.59;4969116;28;106033;-65
2021/07/28 11:43:39;;;;;;;8.43;3.78;;;;;;;41.39;22.27;99537.34;4967897;28;106026;-65
2021/07/28 11:46:16;;;;;;;6.75;3.90;;;;;;;40.19;22.75;99528.72;4968495;28;105870;-65
2021/07/28 11:48:46;;;;;;;6.88;4.20;;;;;;;39.47;23.76;99523.31;4949487;28;106102;-64
2021/07/28 11:51:25;;;;;;;8.23;4.10;;;;;;;38.73;24.74;99522.84;4949119;28;105865;-65
2021/07/28 11:53:51;;;;;;;;;;;;;;;38.43;24.81;99523.59;4948963;28;106793;-65
2021/07/28 11:56:17;;;;;;;7.25;4.22;;;;;;;38.03;25.20;99513.88;4949000;28;105984;-65
2021/07/28 11:58:45;;;;;;;7.53;3.58;;;;;;;37.67;25.73;99521.56;4949741;28;105899;-65
2021/07/28 12:01:30;;;;;;;9.25;4.00;;;;;;;37.55;25.90;99527.31;4957671;28;106094;-67
2021/07/28 12:03:58;;;;;;;5.43;3.70;;;;;;;37.59;25.83;99531.75;4968714;28;105957;-66
2021/07/28 12:06:31;;;;;;;5.90;3.80;;;;;;;37.20;25.83;99533.78;4968066;28;106210;-66
2021/07/28 12:09:09;;;;;;;5.80;4.13;;;;;;;36.86;26.90;99533.50;4968711;28;106493;-68
2021/07/28 12:11:43;;;;;;;8.27;3.88;;;;;;;36.82;27.03;99533.41;4967010;28;106251;-68
2021/07/28 12:14:09;;;;;;;6.90;3.63;;;;;;;37.29;26.98;99537.16;4968343;28;106174;-67
2021/07/28 12:16:40;;;;;;;10.32;3.88;;;;;;;37.52;25.92;99528.03;4967846;28;106497;-67
2021/07/28 12:19:05;;;;;;;7.78;3.25;;;;;;;37.88;25.29;99515.59;4968390;28;106086;-66
2021/07/28 12:21:51;;;;;;;9.93;4.68;;;;;;;38.18;24.72;99516.84;4968661;28;105987;-67
2021/07/28 12:24:17;;;;;;;5.50;3.20;;;;;;;37.97;24.78;99512.56;4968184;28;106103;-66
2021/07/28 12:26:48;;;;;;;9.98;3.35;;;;;;;38.16;25.02;99513.66;4968240;28;106068;-66
2021/07/28 12:30:07;;;;;;;7.32;3.55;;;;;;;38.76;24.08;99504.59;4968118;28;106435;-65
2021/07/28 12:32:37;;;;;;;6.15;3.72;;;;;;;39.09;24.12;99506.56;4908073;28;106044;-66
2021/07/28 12:35:27;;;;;;;6.00;3.42;;;;;;;39.03;23.29;99510.88;4964337;28;106025;-66
2021/07/28 12:38:10;;;;;;;10.13;3.88;;;;;;;38.90;23.38;99506.75;4939850;28;106270;-65
2021/07/28 12:40:41;;;;;;;8.15;3.53;;;;;;;38.76;23.94;99502.59;4968704;28;106046;-65
2021/07/28 12:43:07;;;;;;;8.63;3.47;;;;;;;39.16;23.91;99493.94;4968318;28;106415;-65
2021/07/28 12:45:34;;;;;;;5.72;3.30;;;;;;;39.69;23.41;99495.69;4967726;28;105909;-64
2021/07/28 12:47:59;;;;;;;6.55;3.50;;;;;;;39.91;23.29;99499.44;4967674;28;105960;-65
2021/07/28 12:50:25;;;;;;;7.28;3.22;;;;;;;40.17;22.89;99506.81;4968902;28;106045;-65
2021/07/28 12:52:50;;;;;;;5.95;3.50;;;;;;;40.45;22.46;99502.59;4968552;28;106124;-66
2021/07/28 12:55:16;;;;;;;4.10;3.10;;;;;;;40.32;22.03;99504.91;4967384;28;105962;-66
2021/07/28 12:57:42;;;;;;;4.40;3.20;;;;;;;40.05;21.88;99507.94;4967788;28;106307;-66
